Terminal Aerodrome Forecast
Issued by NWS

Home | Current Version | Previous Version | Graphics & Text | Print | Product List | Glossary On
Versions: 1 2 3 4 5 6 7 8 9 10 11 12 13 14 15 16 17
000
FTUS42 KMHX 242300 RRA
TAFISO
TAF
KISO 242354Z 2500/2524 21009KT P6SM VCSH SCT020 BKN080
     FM250300 22003KT 2SM BR VCSH OVC007
     FM251400 30007KT 5SM BR VCSH OVC020
      AMD LTD TO CLD VIS AND WIND=

USA.gov is the U.S. government's official web portal to all federal, state and local government web resources and services.